KSLB/SLB METAR and TAF weather

Enter ICAO airport designator
Station Type Date Time Source
KSLB METAR 2019/10/15 04:35 UTC NOAA

KSLB 150435Z AUTO 17008KT 10SM CLR 09/06 A2977 RMK AO2


Station Type Date Time Source
KSLB Decoded METAR 2019/10/15 04:35 UTC NOAA

Storm Lake, IA, United States (KSLB) 42-36N 095-14W
Oct 15, 2019 - 12:35 AM EDT / 2019.10.15 0435 UTC
Wind: from the S (170 degrees) at 9 MPH (8 KT):0
Visibility: 10 mile(s):0
Sky conditions: clear
Temperature: 48 F (9 C)
Dew Point: 42 F (6 C)
Relative Humidity: 81%
Pressure (altimeter): 29.77 in. Hg (1008 hPa)
ob: KSLB 150435Z AUTO 17008KT 10SM CLR 09/06 A2977 RMK AO2
cycle: 4

Station Type Date Time Source
KSLB TAF UTC NOAA

Error!

Example: see airport list